Time;durP1;ratioP1;P1;durP2;ratioP2;P2;SDS_P1;SDS_P2;PMS_P1;PMS_P2;Temp;Humidity;BMP_temperature;BMP_pressure;BME280_temperature;BME280_humidity;BME280_pressure;Samples;Min_cycle;Max_cycle;Signal;HPM_P1;HPM_P2
2023/07/13 00:00:45;;;;;;;3.43;2.10;;;19.00;99.90;;;;;;5032277;28;20461;-73
2023/07/13 00:03:13;;;;;;;6.57;1.90;;;18.90;99.90;;;;;;5032850;28;20551;-74
2023/07/13 00:05:40;;;;;;;3.87;2.03;;;18.80;99.90;;;;;;5032289;28;20553;-73
2023/07/13 00:08:08;;;;;;;4.40;2.43;;;18.70;99.90;;;;;;5032554;28;20453;-73
2023/07/13 00:10:40;;;;;;;2.20;1.77;;;18.70;99.90;;;;;;5032491;28;20534;-74
2023/07/13 00:13:07;;;;;;;2.67;2.00;;;18.60;99.90;;;;;;5032686;28;20861;-74
2023/07/13 00:15:35;;;;;;;5.37;2.60;;;18.50;99.90;;;;;;5032084;28;20973;-73
2023/07/13 00:18:01;;;;;;;2.70;2.10;;;18.40;99.90;;;;;;5032172;28;20500;-73
2023/07/13 00:20:28;;;;;;;4.40;2.13;;;18.40;99.90;;;;;;5032066;28;20507;-73
2023/07/13 00:22:55;;;;;;;3.10;2.00;;;18.30;99.90;;;;;;5032211;28;21000;-74
2023/07/13 00:25:24;;;;;;;6.90;2.00;;;18.30;99.90;;;;;;5032373;28;20497;-74
2023/07/13 00:27:52;;;;;;;5.73;2.13;;;18.40;99.90;;;;;;5031962;28;20934;-74
2023/07/13 00:30:19;;;;;;;4.47;1.80;;;18.40;99.90;;;;;;5031745;28;20968;-73
2023/07/13 00:32:45;;;;;;;4.23;1.70;;;18.40;99.90;;;;;;5039107;28;20512;-74
2023/07/13 00:35:15;;;;;;;4.80;2.20;;;18.50;99.90;;;;;;5032170;28;20479;-73
2023/07/13 00:37:42;;;;;;;6.17;2.13;;;18.50;99.90;;;;;;5032040;28;20446;-73
2023/07/13 00:40:11;;;;;;;5.63;2.47;;;18.60;99.90;;;;;;5031944;28;20462;-73
2023/07/13 00:42:38;;;;;;;6.70;2.07;;;18.60;99.90;;;;;;5031579;28;20485;-74
2023/07/13 00:45:29;;;;;;;4.50;2.40;;;18.60;99.90;;;;;;5031965;28;20802;-72
2023/07/13 00:47:57;;;;;;;3.57;2.13;;;18.60;99.90;;;;;;5027809;28;20544;-73
2023/07/13 00:50:24;;;;;;;10.13;2.70;;;18.50;99.90;;;;;;5031563;28;20473;-73
2023/07/13 00:52:57;;;;;;;5.00;2.30;;;18.60;99.90;;;;;;5031559;28;20450;-73
2023/07/13 00:55:24;;;;;;;4.83;1.97;;;18.50;99.90;;;;;;5031671;28;20473;-73
2023/07/13 00:57:51;;;;;;;5.90;1.97;;;18.50;99.90;;;;;;5031948;28;20453;-73
2023/07/13 01:00:22;;;;;;;5.77;2.30;;;18.50;99.90;;;;;;5031505;28;20449;-73
2023/07/13 01:02:50;;;;;;;3.93;2.20;;;18.50;99.90;;;;;;5031226;28;20997;-73
2023/07/13 01:05:19;;;;;;;5.03;2.13;;;18.50;99.90;;;;;;5031300;28;20485;-74
2023/07/13 01:07:46;;;;;;;11.63;2.50;;;18.50;99.90;;;;;;5031414;28;20534;-73
2023/07/13 01:10:14;;;;;;;4.30;2.10;;;18.50;99.90;;;;;;5031261;28;20453;-73
2023/07/13 01:12:41;;;;;;;6.50;2.13;;;18.50;99.90;;;;;;5031448;28;20881;-73
2023/07/13 01:15:37;;;;;;;5.30;2.10;;;18.50;99.90;;;;;;5031370;28;20503;-73
2023/07/13 01:18:05;;;;;;;3.20;2.10;;;18.40;99.90;;;;;;5031694;28;20453;-73
2023/07/13 01:20:35;;;;;;;3.43;2.00;;;18.40;99.90;;;;;;5031059;28;20458;-74
2023/07/13 01:23:05;;;;;;;5.93;1.93;;;18.30;99.90;;;;;;5031255;28;20500;-73
2023/07/13 01:25:32;;;;;;;2.93;1.80;;;18.30;99.90;;;;;;5030963;28;20479;-73
2023/07/13 01:27:59;;;;;;;9.73;2.10;;;18.30;99.90;;;;;;5030889;28;20431;-73
2023/07/13 01:30:25;;;;;;;2.60;2.20;;;18.30;99.90;;;;;;5029691;28;20457;-73
2023/07/13 01:32:52;;;;;;;5.43;2.23;;;18.30;99.90;;;;;;5032455;28;20449;-74
2023/07/13 01:35:19;;;;;;;2.83;1.83;;;18.30;99.90;;;;;;5031055;28;20451;-73
2023/07/13 01:37:45;;;;;;;6.23;2.20;;;18.30;99.90;;;;;;5030356;28;20457;-73
2023/07/13 01:40:14;;;;;;;8.30;2.20;;;18.30;99.90;;;;;;5030562;28;20537;-73
2023/07/13 01:42:42;;;;;;;4.00;2.23;;;18.30;99.90;;;;;;5030998;28;20476;-73
2023/07/13 01:45:09;;;;;;;4.33;1.93;;;18.20;99.90;;;;;;5031241;28;20527;-73
2023/07/13 01:47:35;;;;;;;3.23;1.80;;;18.10;99.90;;;;;;5030867;28;20453;-73
2023/07/13 01:50:02;;;;;;;4.07;1.93;;;18.10;99.90;;;;;;5030712;28;20458;-73
2023/07/13 01:52:29;;;;;;;8.13;2.90;;;18.00;99.90;;;;;;5030706;28;20488;-73
2023/07/13 01:54:55;;;;;;;3.40;2.00;;;18.10;99.90;;;;;;5030675;28;20520;-73
2023/07/13 01:57:23;;;;;;;12.43;2.60;;;18.00;99.90;;;;;;5031316;28;20454;-73
2023/07/13 01:59:50;;;;;;;2.70;1.90;;;18.00;99.90;;;;;;5030677;28;20465;-73
2023/07/13 02:02:17;;;;;;;9.53;1.90;;;18.00;99.90;;;;;;5030682;28;20482;-73
2023/07/13 02:04:43;;;;;;;5.37;2.10;;;17.90;99.90;;;;;;5030608;28;20979;-73
2023/07/13 02:07:10;;;;;;;4.67;2.20;;;17.90;99.90;;;;;;5030158;28;20450;-73
2023/07/13 02:09:36;;;;;;;2.80;2.10;;;17.90;99.90;;;;;;5030591;28;20457;-73
2023/07/13 02:12:04;;;;;;;2.73;1.90;;;17.80;99.90;;;;;;5030822;28;21049;-73
2023/07/13 02:14:32;;;;;;;4.57;2.20;;;17.80;99.90;;;;;;5030720;28;20470;-73
2023/07/13 02:16:59;;;;;;;4.50;1.93;;;17.70;99.90;;;;;;5030720;28;20887;-73
2023/07/13 02:19:25;;;;;;;2.97;2.23;;;17.60;99.90;;;;;;5030253;28;20457;-73
2023/07/13 02:21:52;;;;;;;10.03;2.50;;;17.60;99.90;;;;;;5030296;28;20457;-73
2023/07/13 02:24:20;;;;;;;4.17;2.20;;;17.60;99.90;;;;;;5031083;28;20484;-73
2023/07/13 02:26:47;;;;;;;4.83;2.40;;;17.50;99.90;;;;;;5030639;28;20427;-73
2023/07/13 02:29:14;;;;;;;3.50;2.40;;;17.50;99.90;;;;;;5030161;28;20548;-73
2023/07/13 02:31:43;;;;;;;3.47;2.03;;;17.40;99.90;;;;;;5038464;28;20423;-73
2023/07/13 02:34:09;;;;;;;6.77;2.37;;;17.40;99.90;;;;;;5030507;28;20448;-73
2023/07/13 02:36:36;;;;;;;4.97;2.17;;;17.40;99.90;;;;;;5030616;28;20432;-73
2023/07/13 02:39:06;;;;;;;3.37;1.90;;;17.30;99.90;;;;;;5030326;28;20457;-73
2023/07/13 02:41:33;;;;;;;4.33;1.97;;;17.20;99.90;;;;;;5030650;28;20457;-73
2023/07/13 02:44:03;;;;;;;4.63;2.00;;;17.10;99.90;;;;;;5030441;28;21035;-73
2023/07/13 02:46:30;;;;;;;3.20;1.93;;;17.10;99.90;;;;;;5030230;28;20826;-73
2023/07/13 02:48:58;;;;;;;8.93;2.20;;;17.00;99.90;;;;;;5030375;28;20436;-73
2023/07/13 02:51:25;;;;;;;7.53;1.90;;;17.00;99.90;;;;;;5033317;28;20979;-73
2023/07/13 02:53:51;;;;;;;7.17;2.27;;;17.00;99.90;;;;;;5034097;28;20435;-73
2023/07/13 02:56:24;;;;;;;8.43;2.60;;;17.00;99.90;;;;;;5033969;28;20453;-73
2023/07/13 02:58:51;;;;;;;2.00;1.80;;;16.90;99.90;;;;;;5033527;28;20560;-73
2023/07/13 03:01:18;;;;;;;3.93;2.37;;;16.90;99.90;;;;;;5033224;28;20457;-73
2023/07/13 03:03:45;;;;;;;3.07;2.00;;;16.90;99.90;;;;;;5033828;28;20496;-73
2023/07/13 03:06:14;;;;;;;2.93;2.20;;;16.80;99.90;;;;;;5033925;28;20420;-73
2023/07/13 03:08:41;;;;;;;7.97;2.27;;;16.70;99.90;;;;;;5033460;28;20500;-73
2023/07/13 03:11:10;;;;;;;6.20;2.30;;;16.70;99.90;;;;;;5033527;28;20432;-73
2023/07/13 03:13:37;;;;;;;3.50;2.07;;;16.60;99.90;;;;;;5033737;28;20481;-73
2023/07/13 03:16:04;;;;;;;3.80;1.80;;;16.60;99.90;;;;;;5033689;28;20467;-73
2023/07/13 03:18:31;;;;;;;2.70;2.30;;;16.60;99.90;;;;;;5033172;28;20453;-73
2023/07/13 03:20:58;;;;;;;3.63;1.87;;;16.50;99.90;;;;;;5025643;28;20503;-73
2023/07/13 03:23:26;;;;;;;6.80;2.33;;;16.50;99.90;;;;;;5033472;28;20504;-73
2023/07/13 03:26:03;;;;;;;6.17;2.43;;;16.40;99.90;;;;;;5033051;28;20498;-73
2023/07/13 03:28:29;;;;;;;5.93;2.60;;;16.40;99.90;;;;;;5033124;28;20534;-73
2023/07/13 03:31:01;;;;;;;3.50;2.20;;;16.40;99.90;;;;;;5033017;28;20962;-73
2023/07/13 03:33:27;;;;;;;6.80;2.27;;;16.40;99.90;;;;;;5033407;28;20416;-73
2023/07/13 03:35:54;;;;;;;3.93;2.40;;;16.40;99.90;;;;;;5033311;28;20444;-73
2023/07/13 03:38:21;;;;;;;6.40;2.50;;;16.40;99.90;;;;;;5032796;28;20424;-73
2023/07/13 03:40:49;;;;;;;3.17;2.37;;;16.30;99.90;;;;;;5033019;28;20428;-73
2023/07/13 03:43:16;;;;;;;3.87;2.23;;;16.20;99.90;;;;;;5033160;28;20810;-73
2023/07/13 03:45:43;;;;;;;6.67;2.13;;;16.20;99.90;;;;;;5032967;28;20452;-73
2023/07/13 03:48:10;;;;;;;3.30;3.00;;;16.20;99.90;;;;;;5032952;28;20432;-73
2023/07/13 03:50:37;;;;;;;5.67;2.10;;;16.10;99.90;;;;;;5032901;28;20457;-73
2023/07/13 03:53:03;;;;;;;9.00;2.27;;;16.00;99.90;;;;;;5032730;28;20909;-73
2023/07/13 03:55:30;;;;;;;6.03;2.50;;;16.00;99.90;;;;;;5032905;28;20498;-73
2023/07/13 03:58:01;;;;;;;4.40;2.13;;;15.90;99.90;;;;;;5032656;28;20511;-73
2023/07/13 04:00:28;;;;;;;5.67;2.17;;;16.00;99.90;;;;;;5032512;28;20882;-73
2023/07/13 04:02:55;;;;;;;6.50;2.53;;;16.00;99.90;;;;;;5032278;28;20999;-73
2023/07/13 04:05:21;;;;;;;5.07;2.37;;;16.00;99.90;;;;;;5032532;28;20543;-73
2023/07/13 04:07:48;;;;;;;7.00;2.90;;;16.10;99.90;;;;;;5032220;28;20939;-73
2023/07/13 04:10:15;;;;;;;3.70;2.10;;;16.00;99.90;;;;;;5032623;28;20834;-73
2023/07/13 04:12:41;;;;;;;5.60;2.53;;;16.00;99.90;;;;;;5032325;28;20499;-73
2023/07/13 04:15:10;;;;;;;5.77;2.20;;;16.00;99.90;;;;;;5032784;28;20491;-74
2023/07/13 04:17:37;;;;;;;3.47;2.20;;;16.20;99.90;;;;;;5032216;28;20832;-73
2023/07/13 04:20:04;;;;;;;3.83;2.00;;;16.30;99.90;;;;;;5032252;28;20948;-73
2023/07/13 04:22:31;;;;;;;5.67;2.10;;;16.40;99.90;;;;;;5032353;28;20424;-74
2023/07/13 04:24:56;;;;;;;3.43;2.00;;;16.50;99.90;;;;;;5031782;28;20492;-74
2023/07/13 04:27:23;;;;;;;6.90;2.20;;;16.70;99.90;;;;;;5031878;28;20837;-74
2023/07/13 04:29:50;;;;;;;5.30;2.67;;;16.80;99.90;;;;;;5031961;28;20218;-74
2023/07/13 04:32:18;;;;;;;11.80;3.07;;;17.00;99.90;;;;;;5032484;28;20504;-73
2023/07/13 04:34:44;;;;;;;4.07;2.20;;;17.20;99.90;;;;;;5031856;28;21049;-74
2023/07/13 04:37:11;;;;;;;4.77;2.30;;;17.40;99.90;;;;;;5032175;28;20511;-73
2023/07/13 04:39:37;;;;;;;7.20;2.80;;;17.60;99.90;;;;;;5031479;28;21019;-75
2023/07/13 04:42:05;;;;;;;4.40;2.10;;;17.70;99.90;;;;;;5023883;28;20442;-74
2023/07/13 04:44:31;;;;;;;5.97;2.37;;;17.90;99.90;;;;;;5031723;28;20493;-74
2023/07/13 04:46:58;;;;;;;18.13;3.13;;;17.70;99.90;;;;;;5031841;28;20600;-74
2023/07/13 04:49:26;;;;;;;4.50;1.90;;;17.50;99.90;;;;;;5030596;28;20507;-74
2023/07/13 04:51:54;;;;;;;4.27;2.40;;;17.50;99.90;;;;;;5029459;28;20453;-74
2023/07/13 04:54:21;;;;;;;11.63;2.87;;;17.50;99.90;;;;;;5029924;28;20465;-74
2023/07/13 04:56:48;;;;;;;9.80;2.10;;;17.60;99.90;;;;;;5029742;28;20455;-73
2023/07/13 04:59:15;;;;;;;4.33;2.33;;;17.60;99.90;;;;;;5029430;28;20499;-74
2023/07/13 05:01:41;;;;;;;10.17;2.10;;;17.70;99.90;;;;;;5029325;28;20958;-74
2023/07/13 05:04:08;;;;;;;6.47;2.27;;;17.90;99.90;;;;;;5029380;28;20519;-73
2023/07/13 05:06:36;;;;;;;6.47;2.57;;;17.80;99.90;;;;;;5031747;28;20457;-74
2023/07/13 05:09:03;;;;;;;6.73;2.27;;;17.90;99.90;;;;;;5031568;28;20449;-74
2023/07/13 05:11:29;;;;;;;6.20;2.10;;;18.00;99.90;;;;;;5031295;28;20457;-74
2023/07/13 05:13:56;;;;;;;2.83;1.90;;;18.00;99.90;;;;;;5030056;28;20519;-74
2023/07/13 05:16:22;;;;;;;3.27;1.90;;;18.20;99.90;;;;;;5031123;28;20453;-74
2023/07/13 05:18:49;;;;;;;6.10;1.90;;;18.50;99.90;;;;;;5030922;28;20450;-73
2023/07/13 05:21:16;;;;;;;7.90;2.20;;;18.70;99.90;;;;;;5031233;28;21011;-74
2023/07/13 05:23:44;;;;;;;9.60;2.80;;;18.70;99.90;;;;;;5030979;28;20432;-72
2023/07/13 05:26:11;;;;;;;6.43;2.17;;;18.50;99.90;;;;;;5031051;28;20922;-73
2023/07/13 05:28:38;;;;;;;6.20;2.00;;;18.50;99.90;;;;;;5030442;28;20470;-72
2023/07/13 05:31:05;;;;;;;6.33;2.20;;;18.30;99.90;;;;;;5030774;28;20453;-74
2023/07/13 05:33:33;;;;;;;8.27;2.20;;;18.20;99.90;;;;;;5031282;28;20449;-74
2023/07/13 05:36:00;;;;;;;4.50;1.93;;;18.10;99.90;;;;;;5031319;28;20445;-74
2023/07/13 05:38:27;;;;;;;8.10;2.00;;;18.10;99.90;;;;;;5030346;28;20999;-75
2023/07/13 05:40:56;;;;;;;5.07;2.20;;;18.20;99.90;;;;;;5030568;28;20457;-75
2023/07/13 05:43:23;;;;;;;7.53;2.20;;;18.30;99.90;;;;;;5030925;28;20445;-75
2023/07/13 05:45:52;;;;;;;8.17;2.50;;;18.40;99.90;;;;;;5030813;28;20492;-74
2023/07/13 05:48:18;;;;;;;2.10;1.90;;;18.70;99.90;;;;;;5031007;28;20450;-75
2023/07/13 05:50:45;;;;;;;6.33;2.00;;;18.90;99.90;;;;;;5031220;28;20436;-75
2023/07/13 05:53:13;;;;;;;4.97;2.50;;;19.10;99.90;;;;;;5030494;28;21018;-75
2023/07/13 05:55:42;;;;;;;6.13;2.00;;;19.30;99.90;;;;;;5029800;28;20501;-75
2023/07/13 05:58:10;;;;;;;4.37;1.80;;;19.60;99.90;;;;;;5030674;28;20450;-76
2023/07/13 06:00:37;;;;;;;7.70;2.03;;;19.80;99.90;;;;;;5031235;28;20474;-76
2023/07/13 06:03:03;;;;;;;4.90;1.80;;;19.90;99.90;;;;;;5030978;28;20449;-75
2023/07/13 06:05:30;;;;;;;5.67;2.10;;;19.90;99.90;;;;;;5030789;28;20531;-75
2023/07/13 06:07:57;;;;;;;4.27;1.90;;;20.00;99.90;;;;;;5030441;28;20511;-75
2023/07/13 06:10:23;;;;;;;7.40;1.87;;;20.10;99.90;;;;;;5030782;28;21020;-75
2023/07/13 06:12:50;;;;;;;3.70;1.60;;;20.20;99.90;;;;;;5030607;28;20458;-75
2023/07/13 06:15:20;;;;;;;3.70;1.80;;;20.40;99.90;;;;;;5030941;28;20469;-75
2023/07/13 06:17:46;;;;;;;3.40;1.80;;;20.70;99.90;;;;;;5030316;28;20969;-76
2023/07/13 06:20:13;;;;;;;2.70;1.70;;;20.90;99.90;;;;;;5030364;28;21015;-76
2023/07/13 06:22:39;;;;;;;3.70;1.73;;;20.70;99.90;;;;;;5030388;28;20458;-76
2023/07/13 06:25:07;;;;;;;7.17;2.17;;;20.70;99.90;;;;;;5032614;28;20501;-75
2023/07/13 06:27:34;;;;;;;1.87;1.40;;;20.70;99.90;;;;;;5034458;28;20999;-75
2023/07/13 06:30:01;;;;;;;3.10;1.80;;;20.60;99.90;;;;;;5034252;28;20825;-76
2023/07/13 06:32:29;;;;;;;4.17;1.60;;;20.70;99.90;;;;;;5035961;28;20481;-75
2023/07/13 06:34:56;;;;;;;3.45;1.65;;;20.60;99.90;;;;;;5033064;28;20448;-74
2023/07/13 06:37:22;;;;;;;4.13;1.60;;;20.50;99.90;;;;;;5032926;28;20199;-74
2023/07/13 06:39:49;;;;;;;3.70;1.83;;;20.40;99.90;;;;;;5030612;28;20503;-74
2023/07/13 06:42:17;;;;;;;3.83;2.17;;;20.40;99.90;;;;;;5031034;28;20480;-74
2023/07/13 06:44:44;;;;;;;2.23;1.60;;;20.50;99.90;;;;;;5029820;28;20481;-74
2023/07/13 06:47:10;;;;;;;3.27;1.40;;;20.60;99.90;;;;;;5030122;28;20469;-73
2023/07/13 06:49:38;;;;;;;6.37;2.27;;;20.70;99.90;;;;;;5030727;28;20453;-74
2023/07/13 06:52:06;;;;;;;8.50;1.87;;;21.00;99.90;;;;;;5030361;28;21001;-74
2023/07/13 06:54:33;;;;;;;4.07;2.10;;;21.20;99.90;;;;;;5030536;28;21314;-75
2023/07/13 06:56:59;;;;;;;3.57;1.70;;;21.40;99.90;;;;;;5030283;28;20856;-74
2023/07/13 06:59:26;;;;;;;4.00;1.50;;;21.60;99.90;;;;;;5030206;28;20500;-75
2023/07/13 07:01:52;;;;;;;5.13;1.50;;;21.80;99.90;;;;;;5029716;28;20503;-75
2023/07/13 07:04:19;;;;;;;4.57;1.63;;;22.00;99.90;;;;;;5030477;28;20476;-74
2023/07/13 07:06:48;;;;;;;4.60;1.80;;;22.00;99.90;;;;;;5030207;28;20453;-74
2023/07/13 07:09:16;;;;;;;3.90;1.30;;;22.00;99.90;;;;;;5030221;28;20491;-73
2023/07/13 07:11:43;;;;;;;3.87;1.47;;;22.10;99.90;;;;;;5030316;28;20548;-73
2023/07/13 07:14:10;;;;;;;2.93;1.40;;;22.30;99.90;;;;;;5029941;28;21120;-74
2023/07/13 07:16:36;;;;;;;2.40;1.47;;;22.50;99.90;;;;;;5029637;28;20793;-75
2023/07/13 07:19:03;;;;;;;3.20;2.27;;;22.70;99.90;;;;;;5029705;28;20956;-75
2023/07/13 07:21:31;;;;;;;3.63;1.30;;;22.80;99.90;;;;;;5030058;28;20865;-71
2023/07/13 07:23:59;;;;;;;4.00;1.50;;;22.60;99.90;;;;;;5029969;28;20527;-71
2023/07/13 07:26:26;;;;;;;2.10;1.13;;;22.20;99.90;;;;;;5029675;28;20521;-72
2023/07/13 07:28:53;;;;;;;2.50;1.30;;;22.40;99.90;;;;;;5029273;28;20529;-72
2023/07/13 07:31:19;;;;;;;1.30;1.10;;;22.50;99.90;;;;;;5029806;28;20839;-71
2023/07/13 07:33:46;;;;;;;1.50;1.07;;;22.60;99.90;;;;;;5029985;28;20544;-72
2023/07/13 07:36:13;;;;;;;1.73;1.30;;;22.70;99.90;;;;;;5028988;28;20488;-72
2023/07/13 07:38:39;;;;;;;2.83;1.10;;;22.50;99.90;;;;;;5028770;28;20500;-73
2023/07/13 07:41:07;;;;;;;3.23;1.53;;;22.30;99.90;;;;;;5029215;28;20943;-72
2023/07/13 07:43:34;;;;;;;2.00;1.10;;;22.30;99.90;;;;;;5029084;28;20437;-74
2023/07/13 07:46:00;;;;;;;2.73;1.17;;;22.20;99.90;;;;;;5029583;28;20500;-74
2023/07/13 07:48:27;;;;;;;3.07;1.30;;;22.30;99.90;;;;;;5029627;28;20869;-75
2023/07/13 07:50:54;;;;;;;5.00;1.40;;;22.10;99.90;;;;;;5029098;28;20441;-74
2023/07/13 07:53:20;;;;;;;2.70;1.53;;;22.20;99.90;;;;;;5029173;28;20457;-75
2023/07/13 07:55:47;;;;;;;1.60;1.37;;;22.50;99.90;;;;;;5029096;28;20568;-75
2023/07/13 07:58:16;;;;;;;2.80;1.30;;;22.80;99.90;;;;;;5028564;28;20453;-74
2023/07/13 08:00:42;;;;;;;5.50;1.50;;;23.00;99.90;;;;;;5029000;28;20457;-73
2023/07/13 08:03:09;;;;;;;1.87;1.43;;;22.80;99.90;;;;;;5029392;28;20446;-75
2023/07/13 08:05:36;;;;;;;1.77;1.10;;;22.50;99.90;;;;;;5028877;28;20535;-73
2023/07/13 08:08:03;;;;;;;4.00;1.57;;;22.40;99.90;;;;;;5028290;28;20518;-73
2023/07/13 08:10:30;;;;;;;3.13;1.33;;;22.40;99.90;;;;;;5029056;28;20933;-73
2023/07/13 08:12:56;;;;;;;1.40;1.30;;;22.60;99.90;;;;;;5029383;28;20507;-73
2023/07/13 08:15:24;;;;;;;2.17;1.40;;;22.90;99.90;;;;;;5029100;28;20598;-74
2023/07/13 08:17:51;;;;;;;10.17;1.40;;;23.30;99.90;;;;;;5025467;28;20492;-72
2023/07/13 08:20:18;;;;;;;1.30;1.13;;;23.00;99.90;;;;;;5028630;28;20484;-74
2023/07/13 08:22:44;;;;;;;1.90;1.37;;;22.90;99.90;;;;;;5028762;28;20504;-74
2023/07/13 08:25:11;;;;;;;3.93;1.33;;;23.00;99.90;;;;;;5027981;28;20496;-74
2023/07/13 08:27:38;;;;;;;2.90;1.10;;;22.80;99.90;;;;;;5029030;28;20512;-75
2023/07/13 08:30:08;;;;;;;2.03;1.13;;;22.70;99.90;;;;;;5028118;28;20446;-74
2023/07/13 08:32:37;;;;;;;4.40;1.53;;;22.30;99.90;;;;;;5028506;28;20480;-75
2023/07/13 08:35:05;;;;;;;1.20;1.10;;;22.20;99.90;;;;;;5027817;28;20485;-74
2023/07/13 08:37:32;;;;;;;5.63;1.50;;;22.30;99.90;;;;;;5028360;28;20818;-74
2023/07/13 08:39:58;;;;;;;3.73;1.47;;;22.40;99.90;;;;;;5028611;28;20461;-75
2023/07/13 08:42:36;;;;;;;3.80;1.43;;;22.40;99.90;;;;;;5028628;28;20453;-74
2023/07/13 08:45:13;;;;;;;3.57;1.57;;;22.50;99.90;;;;;;5027894;28;20465;-74
2023/07/13 08:47:45;;;;;;;2.70;1.40;;;22.40;99.90;;;;;;5027084;28;20457;-74
2023/07/13 08:50:15;;;;;;;3.70;1.37;;;22.80;99.90;;;;;;5027979;28;20464;-74
2023/07/13 08:52:44;;;;;;;3.20;1.83;;;22.80;99.90;;;;;;5028615;28;20453;-75
2023/07/13 08:55:15;;;;;;;2.00;1.67;;;22.90;99.90;;;;;;5027518;28;20473;-74
2023/07/13 08:57:44;;;;;;;13.93;1.30;;;22.90;99.90;;;;;;5027991;28;20454;-74
2023/07/13 09:00:14;;;;;;;2.53;1.27;;;23.00;99.90;;;;;;5028146;28;20457;-75
2023/07/13 09:02:47;;;;;;;2.77;1.50;;;23.30;99.90;;;;;;5028275;28;20450;-74
2023/07/13 09:05:16;;;;;;;2.77;1.20;;;23.50;99.90;;;;;;5027926;28;20469;-75
2023/07/13 09:08:02;;;;;;;2.03;1.00;;;23.70;99.90;;;;;;5027724;28;20541;-74
2023/07/13 09:10:31;;;;;;;2.30;1.10;;;23.50;99.90;;;;;;5028269;28;20507;-74
2023/07/13 09:13:14;;;;;;;3.60;1.13;;;23.90;99.90;;;;;;5028030;28;20495;-74
2023/07/13 09:15:45;;;;;;;1.20;1.10;;;24.30;99.90;;;;;;5027871;28;20538;-75
2023/07/13 09:18:19;;;;;;;3.30;1.30;;;24.60;99.90;;;;;;5027481;28;20437;-74
2023/07/13 09:20:49;;;;;;;1.33;1.23;;;24.10;99.90;;;;;;5027520;28;20461;-74
2023/07/13 09:23:20;;;;;;;2.03;1.10;;;23.70;99.90;;;;;;5027794;28;20457;-74
2023/07/13 09:25:50;;;;;;;2.63;1.30;;;23.80;99.90;;;;;;5028003;28;20488;-74
2023/07/13 09:28:22;;;;;;;1.43;1.20;;;23.60;99.90;;;;;;5027207;28;21051;-75
2023/07/13 09:30:53;;;;;;;1.87;1.13;;;23.60;99.90;;;;;;5027567;28;20569;-74
2023/07/13 09:33:22;;;;;;;9.37;1.40;;;23.60;99.90;;;;;;5027698;28;20464;-74
2023/07/13 09:35:49;;;;;;;2.20;1.27;;;23.50;99.90;;;;;;5027564;28;20473;-75
2023/07/13 09:38:19;;;;;;;2.00;1.30;;;23.60;99.90;;;;;;5027094;28;20495;-74
2023/07/13 09:41:01;;;;;;;2.33;1.17;;;23.80;99.90;;;;;;5027565;28;20453;-73
2023/07/13 09:43:29;;;;;;;1.60;1.17;;;23.60;99.90;;;;;;5027352;28;21019;-74
2023/07/13 09:45:56;;;;;;;2.97;1.20;;;23.60;99.90;;;;;;5027596;28;20487;-74
2023/07/13 09:48:25;;;;;;;1.60;1.20;;;23.60;99.90;;;;;;5027002;28;20794;-75
2023/07/13 09:50:56;;;;;;;2.33;1.23;;;23.90;99.90;;;;;;5027400;28;20552;-75
2023/07/13 09:53:23;;;;;;;2.90;1.20;;;24.40;99.90;;;;;;5027096;28;20514;-74
2023/07/13 09:55:50;;;;;;;1.30;0.93;;;24.70;99.90;;;;;;5027211;28;20461;-74
2023/07/13 09:58:19;;;;;;;1.40;1.10;;;24.60;99.90;;;;;;5027200;28;20503;-75
2023/07/13 10:00:58;;;;;;;2.30;1.27;;;25.00;99.90;;;;;;5030797;28;20467;-74
2023/07/13 10:03:30;;;;;;;2.13;1.40;;;25.00;99.90;;;;;;5030537;28;20460;-74
2023/07/13 10:06:07;;;;;;;3.57;1.40;;;25.20;99.90;;;;;;5031160;28;20513;-74
2023/07/13 10:08:36;;;;;;;3.97;1.17;;;25.00;99.90;;;;;;5031454;28;20530;-75
2023/07/13 10:11:11;;;;;;;1.63;1.10;;;25.30;99.90;;;;;;5031658;28;20460;-74
2023/07/13 10:13:42;;;;;;;3.57;1.33;;;25.30;99.90;;;;;;5031095;28;20860;-74
2023/07/13 10:16:10;;;;;;;7.13;1.77;;;25.30;99.90;;;;;;4996463;28;20492;-74
2023/07/13 10:18:43;;;;;;;1.83;1.30;;;25.10;99.90;;;;;;5030921;28;20453;-75
2023/07/13 10:21:13;;;;;;;1.30;1.17;;;25.20;99.90;;;;;;5031465;28;20519;-74
2023/07/13 10:23:41;;;;;;;1.97;1.20;;;25.20;99.90;;;;;;5030682;28;20465;-74
2023/07/13 10:26:15;;;;;;;3.80;1.30;;;25.00;99.90;;;;;;5031050;28;21093;-74
2023/07/13 10:28:45;;;;;;;9.10;1.40;;;24.50;99.90;;;;;;5029988;28;20449;-74
2023/07/13 10:31:16;;;;;;;6.83;1.67;;;24.90;99.90;;;;;;5030770;28;20464;-73
2023/07/13 10:33:44;;;;;;;2.67;1.17;;;24.90;99.90;;;;;;5005422;28;20487;-74
2023/07/13 10:36:18;;;;;;;3.93;1.40;;;24.90;99.90;;;;;;5030828;28;20450;-74
2023/07/13 10:38:49;;;;;;;2.03;1.40;;;24.80;99.90;;;;;;5030302;28;20546;-73
2023/07/13 10:41:19;;;;;;;2.47;1.40;;;24.90;99.90;;;;;;5030589;28;20515;-74
2023/07/13 10:43:50;;;;;;;2.60;1.40;;;25.10;99.90;;;;;;5029486;28;20457;-74
2023/07/13 10:46:20;;;;;;;2.80;1.27;;;25.60;99.90;;;;;;5029766;28;20481;-74
2023/07/13 10:48:50;;;;;;;2.73;1.43;;;25.40;99.90;;;;;;5029480;28;20461;-74
2023/07/13 10:51:21;;;;;;;1.70;1.40;;;25.30;99.90;;;;;;5029758;28;20465;-75
2023/07/13 10:53:48;;;;;;;1.80;1.43;;;25.30;99.90;;;;;;5029460;28;20457;-74
2023/07/13 10:56:25;;;;;;;3.30;1.30;;;25.20;99.90;;;;;;5029639;28;20516;-74
2023/07/13 10:59:06;;;;;;;1.30;1.20;;;25.40;99.90;;;;;;5028912;28;20459;-74
2023/07/13 11:01:41;;;;;;;2.03;1.30;;;26.10;99.90;;;;;;5029670;28;20995;-73
2023/07/13 11:04:21;;;;;;;2.30;1.40;;;26.60;99.60;;;;;;5029696;28;20530;-74
2023/07/13 11:06:50;;;;;;;1.60;1.00;;;26.60;99.70;;;;;;5029862;28;20480;-74
2023/07/13 11:09:32;;;;;;;2.80;1.53;;;26.70;98.60;;;;;;5029083;28;20472;-74
2023/07/13 11:12:01;;;;;;;4.63;1.30;;;26.90;99.30;;;;;;5028814;28;20554;-74
2023/07/13 11:14:32;;;;;;;2.17;1.60;;;27.00;99.20;;;;;;5029845;28;20473;-73
2023/07/13 11:16:59;;;;;;;4.33;1.60;;;26.90;99.90;;;;;;5029514;28;20446;-75
2023/07/13 11:19:40;;;;;;;3.10;1.30;;;27.10;99.40;;;;;;5029571;28;20458;-74
2023/07/13 11:22:43;;;;;;;1.77;1.47;;;27.40;98.40;;;;;;5030204;28;21099;-74
2023/07/13 11:25:28;;;;;;;3.63;1.10;;;27.40;98.50;;;;;;5016434;28;20488;-74
2023/07/13 11:28:09;;;;;;;1.40;1.30;;;27.40;97.80;;;;;;5028884;28;21011;-73
2023/07/13 11:30:39;;;;;;;5.00;1.37;;;27.50;98.00;;;;;;5030400;28;20476;-74
2023/07/13 11:33:16;;;;;;;1.50;1.30;;;28.00;96.60;;;;;;5032271;28;20548;-74
2023/07/13 11:35:54;;;;;;;3.00;1.40;;;28.30;96.10;;;;;;5032042;28;20481;-75
2023/07/13 11:38:23;;;;;;;2.70;1.27;;;28.80;97.60;;;;;;5031792;28;20449;-73
2023/07/13 11:40:54;;;;;;;2.83;1.20;;;28.70;96.90;;;;;;5031886;28;20464;-74
2023/07/13 11:43:23;;;;;;;2.33;1.33;;;28.40;96.10;;;;;;5032138;28;20457;-74
2023/07/13 11:45:50;;;;;;;3.53;1.30;;;27.90;96.40;;;;;;5031840;28;20473;-73
2023/07/13 11:48:25;;;;;;;1.30;1.10;;;27.40;96.60;;;;;;5030889;28;20453;-73
2023/07/13 11:51:00;;;;;;;2.07;1.43;;;27.00;97.10;;;;;;5031037;28;20465;-73
2023/07/13 11:53:30;;;;;;;1.60;1.20;;;26.60;97.40;;;;;;5027642;28;20496;-74
2023/07/13 11:55:58;;;;;;;1.23;1.13;;;26.40;97.00;;;;;;5028758;28;21031;-73
2023/07/13 11:58:28;;;;;;;2.60;1.50;;;26.30;97.20;;;;;;5029155;28;20449;-73
2023/07/13 12:00:56;;;;;;;4.53;1.60;;;26.00;96.70;;;;;;5028285;28;20508;-73
2023/07/13 12:03:25;;;;;;;2.27;1.40;;;25.50;97.20;;;;;;5028682;28;20445;-72
2023/07/13 12:06:05;;;;;;;2.20;1.57;;;25.30;97.70;;;;;;5028518;28;20461;-72
2023/07/13 12:08:38;;;;;;;2.23;1.70;;;25.00;98.10;;;;;;5027679;28;20460;-73
2023/07/13 12:11:12;;;;;;;3.10;1.30;;;25.00;99.00;;;;;;5028627;28;21041;-72
2023/07/13 12:13:39;;;;;;;3.40;1.40;;;25.40;98.80;;;;;;5028704;28;20437;-73
2023/07/13 12:16:16;;;;;;;1.40;1.30;;;25.70;98.50;;;;;;5028698;28;20446;-73
2023/07/13 12:18:46;;;;;;;4.20;1.17;;;26.00;98.40;;;;;;5029003;28;20477;-72
2023/07/13 12:21:18;;;;;;;2.97;1.43;;;26.10;96.90;;;;;;5029112;28;20458;-73
2023/07/13 12:23:49;;;;;;;3.10;1.30;;;25.80;97.40;;;;;;5028485;28;20449;-73
2023/07/13 12:26:17;;;;;;;1.60;1.50;;;25.70;97.20;;;;;;5028187;28;20461;-72
2023/07/13 12:28:48;;;;;;;2.30;1.50;;;25.50;97.20;;;;;;5028088;28;20549;-73
2023/07/13 12:31:27;;;;;;;2.80;1.30;;;25.20;96.90;;;;;;5028864;28;20527;-73
2023/07/13 12:34:01;;;;;;;4.27;1.53;;;25.40;97.80;;;;;;5028694;28;20891;-73
2023/07/13 12:36:34;;;;;;;2.90;1.40;;;25.60;97.60;;;;;;5028304;28;20445;-73
2023/07/13 12:39:11;;;;;;;1.57;1.47;;;25.60;97.50;;;;;;5028354;28;20976;-73
2023/07/13 12:41:38;;;;;;;3.10;1.20;;;25.90;97.30;;;;;;5028665;28;20782;-73
2023/07/13 12:44:08;;;;;;;3.27;1.87;;;26.20;97.80;;;;;;5026104;28;21058;-73
2023/07/13 12:46:35;;;;;;;3.50;1.30;;;26.20;96.90;;;;;;5027370;28;20481;-73
2023/07/13 12:49:07;;;;;;;2.63;1.70;;;26.40;96.90;;;;;;5027433;28;20453;-73
2023/07/13 12:51:39;;;;;;;3.00;1.50;;;26.40;97.00;;;;;;5026111;28;20458;-74
2023/07/13 12:54:17;;;;;;;2.80;1.10;;;26.20;96.20;;;;;;5025863;28;20572;-73